sensor_id;sensor_type;location;lat;lon;timestamp;P1;durP1;ratioP1;P2;durP2;ratioP2
70487;SDS011;57976;48.174;16.370;2022-07-23T01:00:32;14.70;;;10.70;;
70487;SDS011;57976;48.174;16.370;2022-07-23T01:02:35;15.00;;;10.40;;
70487;SDS011;57976;48.174;16.370;2022-07-23T01:04:37;14.40;;;10.00;;
70487;SDS011;57976;48.174;16.370;2022-07-23T01:06:40;13.30;;;10.00;;
70487;SDS011;57976;48.174;16.370;2022-07-23T01:08:44;13.40;;;10.10;;
70487;SDS011;57976;48.174;16.370;2022-07-23T01:10:47;14.10;;;10.00;;
70487;SDS011;57976;48.174;16.370;2022-07-23T01:12:51;13.80;;;10.20;;
70487;SDS011;57976;48.174;16.370;2022-07-23T01:14:54;14.20;;;10.10;;
70487;SDS011;57976;48.174;16.370;2022-07-23T01:16:58;13.70;;;9.90;;
70487;SDS011;57976;48.174;16.370;2022-07-23T01:19:00;14.60;;;9.90;;
70487;SDS011;57976;48.174;16.370;2022-07-23T01:21:05;13.60;;;9.50;;
70487;SDS011;57976;48.174;16.370;2022-07-23T01:23:09;13.50;;;10.00;;
70487;SDS011;57976;48.174;16.370;2022-07-23T01:25:17;12.20;;;9.20;;
70487;SDS011;57976;48.174;16.370;2022-07-23T01:27:28;13.00;;;9.40;;
70487;SDS011;57976;48.174;16.370;2022-07-23T01:29:34;11.60;;;8.80;;
70487;SDS011;57976;48.174;16.370;2022-07-23T01:31:41;11.40;;;8.80;;
70487;SDS011;57976;48.174;16.370;2022-07-23T01:33:46;11.00;;;8.30;;
70487;SDS011;57976;48.174;16.370;2022-07-23T01:35:49;12.70;;;8.70;;
70487;SDS011;57976;48.174;16.370;2022-07-23T01:37:56;12.50;;;8.90;;
70487;SDS011;57976;48.174;16.370;2022-07-23T01:39:59;12.50;;;8.80;;
70487;SDS011;57976;48.174;16.370;2022-07-23T01:42:04;12.70;;;9.30;;
70487;SDS011;57976;48.174;16.370;2022-07-23T01:44:08;12.40;;;9.50;;
70487;SDS011;57976;48.174;16.370;2022-07-23T01:46:13;12.00;;;9.10;;
70487;SDS011;57976;48.174;16.370;2022-07-23T01:48:19;11.60;;;9.00;;
70487;SDS011;57976;48.174;16.370;2022-07-23T01:50:42;12.50;;;9.60;;
70487;SDS011;57976;48.174;16.370;2022-07-23T01:52:55;13.40;;;9.30;;
70487;SDS011;57976;48.174;16.370;2022-07-23T01:54:58;13.10;;;9.60;;
70487;SDS011;57976;48.174;16.370;2022-07-23T01:57:01;12.50;;;10.00;;
70487;SDS011;57976;48.174;16.370;2022-07-23T01:59:04;15.10;;;9.80;;
70487;SDS011;57976;48.174;16.370;2022-07-23T02:01:06;13.80;;;10.10;;
70487;SDS011;57976;48.174;16.370;2022-07-23T02:03:09;13.40;;;9.90;;
70487;SDS011;57976;48.174;16.370;2022-07-23T02:05:12;13.30;;;10.30;;
70487;SDS011;57976;48.174;16.370;2022-07-23T02:07:14;13.70;;;9.70;;
70487;SDS011;57976;48.174;16.370;2022-07-23T02:09:17;13.40;;;9.70;;
70487;SDS011;57976;48.174;16.370;2022-07-23T02:11:21;11.70;;;10.00;;
70487;SDS011;57976;48.174;16.370;2022-07-23T02:13:25;14.20;;;10.00;;
70487;SDS011;57976;48.174;16.370;2022-07-23T02:15:35;14.10;;;10.90;;
70487;SDS011;57976;48.174;16.370;2022-07-23T02:17:38;12.40;;;10.30;;
70487;SDS011;57976;48.174;16.370;2022-07-23T02:19:40;13.90;;;10.70;;
70487;SDS011;57976;48.174;16.370;2022-07-23T02:21:43;13.90;;;10.10;;
70487;SDS011;57976;48.174;16.370;2022-07-23T02:23:46;13.70;;;10.30;;
70487;SDS011;57976;48.174;16.370;2022-07-23T02:25:49;13.90;;;9.80;;
70487;SDS011;57976;48.174;16.370;2022-07-23T02:27:51;12.90;;;10.00;;
70487;SDS011;57976;48.174;16.370;2022-07-23T02:29:54;13.40;;;9.90;;
70487;SDS011;57976;48.174;16.370;2022-07-23T02:31:57;14.70;;;9.90;;
70487;SDS011;57976;48.174;16.370;2022-07-23T02:34:00;14.00;;;10.10;;
70487;SDS011;57976;48.174;16.370;2022-07-23T02:36:04;14.50;;;9.90;;
70487;SDS011;57976;48.174;16.370;2022-07-23T02:38:07;13.50;;;9.80;;
70487;SDS011;57976;48.174;16.370;2022-07-23T02:40:11;13.00;;;9.60;;
70487;SDS011;57976;48.174;16.370;2022-07-23T02:42:14;13.80;;;9.80;;
70487;SDS011;57976;48.174;16.370;2022-07-23T02:44:17;13.50;;;10.10;;
70487;SDS011;57976;48.174;16.370;2022-07-23T02:46:22;13.50;;;10.10;;
70487;SDS011;57976;48.174;16.370;2022-07-23T02:48:25;12.60;;;10.10;;
70487;SDS011;57976;48.174;16.370;2022-07-23T02:50:28;12.50;;;10.00;;
70487;SDS011;57976;48.174;16.370;2022-07-23T02:52:32;12.40;;;10.00;;
70487;SDS011;57976;48.174;16.370;2022-07-23T02:54:36;13.60;;;10.10;;
70487;SDS011;57976;48.174;16.370;2022-07-23T02:56:39;12.70;;;9.90;;
70487;SDS011;57976;48.174;16.370;2022-07-23T02:58:42;12.40;;;9.70;;
70487;SDS011;57976;48.174;16.370;2022-07-23T03:00:45;14.40;;;10.90;;
70487;SDS011;57976;48.174;16.370;2022-07-23T03:02:47;15.40;;;10.40;;
70487;SDS011;57976;48.174;16.370;2022-07-23T03:04:50;13.00;;;10.10;;
70487;SDS011;57976;48.174;16.370;2022-07-23T03:06:53;13.40;;;10.30;;
70487;SDS011;57976;48.174;16.370;2022-07-23T03:08:56;14.40;;;9.80;;
70487;SDS011;57976;48.174;16.370;2022-07-23T03:10:59;12.80;;;10.40;;
70487;SDS011;57976;48.174;16.370;2022-07-23T03:13:02;14.40;;;10.40;;
70487;SDS011;57976;48.174;16.370;2022-07-23T03:15:07;14.20;;;10.10;;
70487;SDS011;57976;48.174;16.370;2022-07-23T03:17:11;14.10;;;10.00;;
70487;SDS011;57976;48.174;16.370;2022-07-23T03:19:13;12.70;;;9.70;;
70487;SDS011;57976;48.174;16.370;2022-07-23T03:21:16;13.10;;;10.00;;
70487;SDS011;57976;48.174;16.370;2022-07-23T03:23:19;12.80;;;10.30;;
70487;SDS011;57976;48.174;16.370;2022-07-23T03:25:23;13.50;;;10.30;;
70487;SDS011;57976;48.174;16.370;2022-07-23T03:27:26;13.30;;;10.40;;
70487;SDS011;57976;48.174;16.370;2022-07-23T03:29:31;14.10;;;10.00;;
70487;SDS011;57976;48.174;16.370;2022-07-23T03:31:34;12.10;;;9.90;;
70487;SDS011;57976;48.174;16.370;2022-07-23T03:33:37;12.90;;;9.90;;
70487;SDS011;57976;48.174;16.370;2022-07-23T03:35:39;12.70;;;9.80;;
70487;SDS011;57976;48.174;16.370;2022-07-23T03:37:51;12.90;;;10.10;;
70487;SDS011;57976;48.174;16.370;2022-07-23T03:39:55;13.90;;;9.80;;
70487;SDS011;57976;48.174;16.370;2022-07-23T03:41:58;12.80;;;9.70;;
70487;SDS011;57976;48.174;16.370;2022-07-23T03:44:01;12.60;;;9.90;;
70487;SDS011;57976;48.174;16.370;2022-07-23T03:46:04;14.00;;;9.90;;
70487;SDS011;57976;48.174;16.370;2022-07-23T03:48:07;12.00;;;9.30;;
70487;SDS011;57976;48.174;16.370;2022-07-23T03:50:09;14.80;;;9.60;;
70487;SDS011;57976;48.174;16.370;2022-07-23T03:52:13;14.30;;;10.00;;
70487;SDS011;57976;48.174;16.370;2022-07-23T03:54:16;14.10;;;10.10;;
70487;SDS011;57976;48.174;16.370;2022-07-23T03:56:19;13.70;;;10.10;;
70487;SDS011;57976;48.174;16.370;2022-07-23T03:58:21;13.50;;;10.60;;
70487;SDS011;57976;48.174;16.370;2022-07-23T04:00:24;12.60;;;10.00;;
70487;SDS011;57976;48.174;16.370;2022-07-23T04:02:27;13.10;;;10.10;;
70487;SDS011;57976;48.174;16.370;2022-07-23T04:04:30;12.20;;;9.50;;
70487;SDS011;57976;48.174;16.370;2022-07-23T04:06:33;13.50;;;10.40;;
70487;SDS011;57976;48.174;16.370;2022-07-23T04:08:36;13.60;;;10.40;;
70487;SDS011;57976;48.174;16.370;2022-07-23T04:10:39;13.00;;;10.30;;
70487;SDS011;57976;48.174;16.370;2022-07-23T04:12:43;15.20;;;10.10;;
70487;SDS011;57976;48.174;16.370;2022-07-23T04:14:45;13.50;;;10.00;;
70487;SDS011;57976;48.174;16.370;2022-07-23T04:16:49;13.00;;;10.20;;
70487;SDS011;57976;48.174;16.370;2022-07-23T04:18:51;15.40;;;10.20;;
70487;SDS011;57976;48.174;16.370;2022-07-23T04:20:55;13.20;;;10.10;;
70487;SDS011;57976;48.174;16.370;2022-07-23T04:22:58;12.20;;;9.90;;
70487;SDS011;57976;48.174;16.370;2022-07-23T04:25:04;14.30;;;9.90;;
70487;SDS011;57976;48.174;16.370;2022-07-23T04:27:10;13.30;;;9.80;;
70487;SDS011;57976;48.174;16.370;2022-07-23T04:29:14;13.10;;;10.00;;
70487;SDS011;57976;48.174;16.370;2022-07-23T04:31:17;14.00;;;10.30;;
70487;SDS011;57976;48.174;16.370;2022-07-23T04:33:20;14.50;;;9.90;;
70487;SDS011;57976;48.174;16.370;2022-07-23T04:35:28;12.40;;;9.60;;
70487;SDS011;57976;48.174;16.370;2022-07-23T04:37:36;13.90;;;9.80;;
70487;SDS011;57976;48.174;16.370;2022-07-23T04:39:39;12.80;;;9.90;;
70487;SDS011;57976;48.174;16.370;2022-07-23T04:41:42;12.70;;;9.90;;
70487;SDS011;57976;48.174;16.370;2022-07-23T04:43:45;13.10;;;9.90;;
70487;SDS011;57976;48.174;16.370;2022-07-23T04:45:47;13.00;;;9.60;;
70487;SDS011;57976;48.174;16.370;2022-07-23T04:47:50;11.80;;;9.60;;
70487;SDS011;57976;48.174;16.370;2022-07-23T04:49:54;11.60;;;9.20;;
70487;SDS011;57976;48.174;16.370;2022-07-23T04:51:56;11.70;;;9.00;;
70487;SDS011;57976;48.174;16.370;2022-07-23T04:53:59;12.20;;;9.40;;
70487;SDS011;57976;48.174;16.370;2022-07-23T04:56:02;12.70;;;9.40;;
70487;SDS011;57976;48.174;16.370;2022-07-23T04:58:05;12.20;;;9.30;;
70487;SDS011;57976;48.174;16.370;2022-07-23T05:00:09;13.40;;;10.10;;
70487;SDS011;57976;48.174;16.370;2022-07-23T05:02:13;12.70;;;9.80;;
70487;SDS011;57976;48.174;16.370;2022-07-23T05:04:16;12.20;;;9.50;;
70487;SDS011;57976;48.174;16.370;2022-07-23T05:06:19;11.60;;;9.10;;
70487;SDS011;57976;48.174;16.370;2022-07-23T05:08:23;12.80;;;9.10;;
70487;SDS011;57976;48.174;16.370;2022-07-23T05:10:28;12.60;;;9.70;;
70487;SDS011;57976;48.174;16.370;2022-07-23T05:12:34;12.80;;;9.60;;
70487;SDS011;57976;48.174;16.370;2022-07-23T05:14:36;12.50;;;9.30;;
70487;SDS011;57976;48.174;16.370;2022-07-23T05:16:39;11.70;;;9.50;;
70487;SDS011;57976;48.174;16.370;2022-07-23T05:18:46;12.20;;;9.90;;
70487;SDS011;57976;48.174;16.370;2022-07-23T05:20:49;12.20;;;10.00;;
70487;SDS011;57976;48.174;16.370;2022-07-23T05:22:54;13.40;;;9.60;;
70487;SDS011;57976;48.174;16.370;2022-07-23T05:24:56;15.60;;;9.50;;
70487;SDS011;57976;48.174;16.370;2022-07-23T05:27:00;12.20;;;9.80;;
70487;SDS011;57976;48.174;16.370;2022-07-23T05:29:03;12.60;;;10.00;;
70487;SDS011;57976;48.174;16.370;2022-07-23T05:31:07;12.10;;;9.50;;
70487;SDS011;57976;48.174;16.370;2022-07-23T05:33:09;12.90;;;9.30;;
70487;SDS011;57976;48.174;16.370;2022-07-23T05:35:13;12.10;;;8.80;;
70487;SDS011;57976;48.174;16.370;2022-07-23T05:37:19;12.90;;;9.90;;
70487;SDS011;57976;48.174;16.370;2022-07-23T05:39:22;12.90;;;9.70;;
70487;SDS011;57976;48.174;16.370;2022-07-23T05:41:25;12.20;;;9.50;;
70487;SDS011;57976;48.174;16.370;2022-07-23T05:43:28;13.40;;;9.50;;
70487;SDS011;57976;48.174;16.370;2022-07-23T05:45:31;13.30;;;9.40;;
70487;SDS011;57976;48.174;16.370;2022-07-23T05:47:39;12.30;;;9.30;;
70487;SDS011;57976;48.174;16.370;2022-07-23T05:49:43;12.40;;;9.60;;
70487;SDS011;57976;48.174;16.370;2022-07-23T05:52:04;12.30;;;9.40;;
70487;SDS011;57976;48.174;16.370;2022-07-23T05:54:27;13.20;;;9.50;;
70487;SDS011;57976;48.174;16.370;2022-07-23T05:56:30;12.20;;;9.30;;
70487;SDS011;57976;48.174;16.370;2022-07-23T05:58:32;11.80;;;9.40;;
70487;SDS011;57976;48.174;16.370;2022-07-23T06:00:36;13.20;;;9.30;;
70487;SDS011;57976;48.174;16.370;2022-07-23T06:02:39;11.50;;;8.70;;
70487;SDS011;57976;48.174;16.370;2022-07-23T06:04:46;12.90;;;9.10;;
70487;SDS011;57976;48.174;16.370;2022-07-23T06:06:56;11.30;;;9.00;;
70487;SDS011;57976;48.174;16.370;2022-07-23T06:08:59;14.70;;;9.30;;
70487;SDS011;57976;48.174;16.370;2022-07-23T06:11:02;10.80;;;8.70;;
70487;SDS011;57976;48.174;16.370;2022-07-23T06:13:05;12.20;;;8.50;;
70487;SDS011;57976;48.174;16.370;2022-07-23T06:15:09;11.20;;;8.70;;
70487;SDS011;57976;48.174;16.370;2022-07-23T06:17:12;12.30;;;8.90;;
70487;SDS011;57976;48.174;16.370;2022-07-23T06:19:15;11.30;;;8.40;;
70487;SDS011;57976;48.174;16.370;2022-07-23T06:21:18;11.20;;;8.00;;
70487;SDS011;57976;48.174;16.370;2022-07-23T06:23:41;10.70;;;8.30;;
70487;SDS011;57976;48.174;16.370;2022-07-23T06:25:44;10.60;;;8.10;;
70487;SDS011;57976;48.174;16.370;2022-07-23T06:27:46;11.20;;;8.10;;
70487;SDS011;57976;48.174;16.370;2022-07-23T06:29:49;10.70;;;8.40;;
70487;SDS011;57976;48.174;16.370;2022-07-23T06:31:52;11.30;;;7.70;;
70487;SDS011;57976;48.174;16.370;2022-07-23T06:33:54;11.40;;;8.30;;
70487;SDS011;57976;48.174;16.370;2022-07-23T06:35:58;11.20;;;8.30;;
70487;SDS011;57976;48.174;16.370;2022-07-23T06:38:02;11.20;;;8.00;;
70487;SDS011;57976;48.174;16.370;2022-07-23T06:40:05;12.50;;;8.40;;
70487;SDS011;57976;48.174;16.370;2022-07-23T06:42:10;11.20;;;7.90;;
70487;SDS011;57976;48.174;16.370;2022-07-23T06:44:17;11.70;;;7.90;;
70487;SDS011;57976;48.174;16.370;2022-07-23T06:46:22;10.50;;;7.50;;
70487;SDS011;57976;48.174;16.370;2022-07-23T06:48:25;10.50;;;7.10;;
70487;SDS011;57976;48.174;16.370;2022-07-23T06:50:27;9.40;;;7.00;;
70487;SDS011;57976;48.174;16.370;2022-07-23T06:52:30;9.20;;;6.60;;
70487;SDS011;57976;48.174;16.370;2022-07-23T06:54:33;10.00;;;6.60;;
70487;SDS011;57976;48.174;16.370;2022-07-23T06:56:36;9.50;;;7.10;;
70487;SDS011;57976;48.174;16.370;2022-07-23T06:58:39;8.50;;;6.60;;
70487;SDS011;57976;48.174;16.370;2022-07-23T07:00:42;10.50;;;6.40;;
70487;SDS011;57976;48.174;16.370;2022-07-23T07:02:45;11.10;;;6.60;;
70487;SDS011;57976;48.174;16.370;2022-07-23T07:04:48;9.10;;;6.70;;
70487;SDS011;57976;48.174;16.370;2022-07-23T07:06:51;8.30;;;6.10;;
70487;SDS011;57976;48.174;16.370;2022-07-23T07:08:53;8.00;;;5.60;;
70487;SDS011;57976;48.174;16.370;2022-07-23T07:10:56;7.20;;;5.00;;
70487;SDS011;57976;48.174;16.370;2022-07-23T07:12:58;7.80;;;5.30;;
70487;SDS011;57976;48.174;16.370;2022-07-23T07:15:01;7.70;;;5.00;;
70487;SDS011;57976;48.174;16.370;2022-07-23T07:17:04;7.10;;;4.90;;
70487;SDS011;57976;48.174;16.370;2022-07-23T07:19:06;9.30;;;5.10;;
70487;SDS011;57976;48.174;16.370;2022-07-23T07:21:09;7.70;;;5.00;;
70487;SDS011;57976;48.174;16.370;2022-07-23T07:23:13;7.60;;;4.90;;
70487;SDS011;57976;48.174;16.370;2022-07-23T07:25:17;7.70;;;4.80;;
70487;SDS011;57976;48.174;16.370;2022-07-23T07:27:20;7.80;;;4.90;;
70487;SDS011;57976;48.174;16.370;2022-07-23T07:29:23;7.70;;;4.90;;
70487;SDS011;57976;48.174;16.370;2022-07-23T07:31:25;7.80;;;5.20;;
70487;SDS011;57976;48.174;16.370;2022-07-23T07:33:28;7.50;;;4.90;;
70487;SDS011;57976;48.174;16.370;2022-07-23T07:35:31;8.00;;;4.60;;
70487;SDS011;57976;48.174;16.370;2022-07-23T07:37:34;7.80;;;4.70;;
70487;SDS011;57976;48.174;16.370;2022-07-23T07:39:37;6.90;;;4.50;;
70487;SDS011;57976;48.174;16.370;2022-07-23T07:41:39;7.40;;;4.80;;
70487;SDS011;57976;48.174;16.370;2022-07-23T07:43:42;6.70;;;4.50;;
70487;SDS011;57976;48.174;16.370;2022-07-23T07:45:46;6.70;;;4.40;;
70487;SDS011;57976;48.174;16.370;2022-07-23T07:47:49;6.80;;;4.60;;
70487;SDS011;57976;48.174;16.370;2022-07-23T07:49:52;7.90;;;4.80;;
70487;SDS011;57976;48.174;16.370;2022-07-23T07:51:54;7.30;;;4.50;;
70487;SDS011;57976;48.174;16.370;2022-07-23T07:53:57;7.40;;;4.60;;
70487;SDS011;57976;48.174;16.370;2022-07-23T07:56:02;7.50;;;4.40;;
70487;SDS011;57976;48.174;16.370;2022-07-23T07:58:06;7.70;;;4.70;;
70487;SDS011;57976;48.174;16.370;2022-07-23T08:00:10;7.30;;;4.80;;
70487;SDS011;57976;48.174;16.370;2022-07-23T08:02:13;7.50;;;5.00;;
70487;SDS011;57976;48.174;16.370;2022-07-23T08:04:16;7.60;;;4.80;;
70487;SDS011;57976;48.174;16.370;2022-07-23T08:06:19;6.90;;;4.50;;
70487;SDS011;57976;48.174;16.370;2022-07-23T08:08:22;6.70;;;4.50;;
70487;SDS011;57976;48.174;16.370;2022-07-23T08:10:25;7.70;;;4.80;;
70487;SDS011;57976;48.174;16.370;2022-07-23T08:12:37;7.60;;;4.70;;
70487;SDS011;57976;48.174;16.370;2022-07-23T08:14:41;8.40;;;5.20;;
70487;SDS011;57976;48.174;16.370;2022-07-23T08:16:45;7.20;;;4.90;;
70487;SDS011;57976;48.174;16.370;2022-07-23T08:19:07;7.50;;;5.20;;
70487;SDS011;57976;48.174;16.370;2022-07-23T08:21:10;7.90;;;5.30;;
70487;SDS011;57976;48.174;16.370;2022-07-23T08:23:13;8.70;;;5.40;;
70487;SDS011;57976;48.174;16.370;2022-07-23T08:25:19;7.80;;;5.10;;
70487;SDS011;57976;48.174;16.370;2022-07-23T08:27:22;7.60;;;5.20;;
70487;SDS011;57976;48.174;16.370;2022-07-23T08:29:25;8.70;;;5.40;;
70487;SDS011;57976;48.174;16.370;2022-07-23T08:31:28;7.40;;;5.10;;
70487;SDS011;57976;48.174;16.370;2022-07-23T08:33:31;9.10;;;5.50;;
70487;SDS011;57976;48.174;16.370;2022-07-23T08:35:36;7.30;;;4.90;;
70487;SDS011;57976;48.174;16.370;2022-07-23T08:37:40;9.00;;;5.30;;
70487;SDS011;57976;48.174;16.370;2022-07-23T08:39:43;7.30;;;5.10;;
70487;SDS011;57976;48.174;16.370;2022-07-23T08:41:45;8.40;;;5.30;;
70487;SDS011;57976;48.174;16.370;2022-07-23T08:43:48;8.20;;;5.30;;
70487;SDS011;57976;48.174;16.370;2022-07-23T08:45:52;7.30;;;5.20;;
70487;SDS011;57976;48.174;16.370;2022-07-23T08:47:56;7.10;;;5.20;;
70487;SDS011;57976;48.174;16.370;2022-07-23T08:49:59;8.10;;;5.40;;
70487;SDS011;57976;48.174;16.370;2022-07-23T08:52:03;8.40;;;5.70;;
70487;SDS011;57976;48.174;16.370;2022-07-23T08:54:08;8.00;;;5.60;;
70487;SDS011;57976;48.174;16.370;2022-07-23T08:56:11;8.60;;;5.70;;
70487;SDS011;57976;48.174;16.370;2022-07-23T08:58:14;8.90;;;5.50;;
70487;SDS011;57976;48.174;16.370;2022-07-23T09:00:17;8.10;;;5.80;;
70487;SDS011;57976;48.174;16.370;2022-07-23T09:02:22;8.00;;;5.60;;
70487;SDS011;57976;48.174;16.370;2022-07-23T09:04:25;8.10;;;5.20;;
70487;SDS011;57976;48.174;16.370;2022-07-23T09:06:28;7.80;;;5.20;;
70487;SDS011;57976;48.174;16.370;2022-07-23T09:08:35;7.90;;;5.20;;
70487;SDS011;57976;48.174;16.370;2022-07-23T09:10:45;7.60;;;5.20;;
70487;SDS011;57976;48.174;16.370;2022-07-23T09:12:50;7.50;;;4.90;;
70487;SDS011;57976;48.174;16.370;2022-07-23T09:14:53;7.90;;;5.70;;
70487;SDS011;57976;48.174;16.370;2022-07-23T09:16:56;9.10;;;5.80;;
70487;SDS011;57976;48.174;16.370;2022-07-23T09:19:09;9.60;;;5.70;;
70487;SDS011;57976;48.174;16.370;2022-07-23T09:21:13;8.30;;;5.80;;
70487;SDS011;57976;48.174;16.370;2022-07-23T09:23:17;9.10;;;6.10;;
70487;SDS011;57976;48.174;16.370;2022-07-23T09:25:20;7.60;;;5.70;;
70487;SDS011;57976;48.174;16.370;2022-07-23T09:27:23;8.50;;;5.90;;
70487;SDS011;57976;48.174;16.370;2022-07-23T09:29:56;8.90;;;6.00;;
70487;SDS011;57976;48.174;16.370;2022-07-23T09:31:59;8.30;;;6.00;;
70487;SDS011;57976;48.174;16.370;2022-07-23T09:34:09;9.70;;;6.00;;
70487;SDS011;57976;48.174;16.370;2022-07-23T09:36:15;9.80;;;5.60;;
70487;SDS011;57976;48.174;16.370;2022-07-23T09:38:28;9.10;;;6.00;;
70487;SDS011;57976;48.174;16.370;2022-07-23T09:40:30;8.60;;;6.10;;
70487;SDS011;57976;48.174;16.370;2022-07-23T09:42:33;8.50;;;5.90;;
70487;SDS011;57976;48.174;16.370;2022-07-23T09:44:40;7.60;;;5.50;;
70487;SDS011;57976;48.174;16.370;2022-07-23T09:46:45;8.00;;;5.80;;
70487;SDS011;57976;48.174;16.370;2022-07-23T09:48:49;8.60;;;6.00;;
70487;SDS011;57976;48.174;16.370;2022-07-23T09:50:53;9.20;;;6.00;;
70487;SDS011;57976;48.174;16.370;2022-07-23T09:53:05;8.00;;;6.30;;
70487;SDS011;57976;48.174;16.370;2022-07-23T09:55:10;8.90;;;6.10;;
70487;SDS011;57976;48.174;16.370;2022-07-23T09:57:13;9.00;;;6.60;;
70487;SDS011;57976;48.174;16.370;2022-07-23T09:59:16;7.90;;;5.90;;
70487;SDS011;57976;48.174;16.370;2022-07-23T10:01:20;8.40;;;6.30;;
70487;SDS011;57976;48.174;16.370;2022-07-23T10:03:23;8.60;;;6.00;;
70487;SDS011;57976;48.174;16.370;2022-07-23T10:05:45;8.30;;;6.50;;
70487;SDS011;57976;48.174;16.370;2022-07-23T10:08:00;9.00;;;5.60;;
70487;SDS011;57976;48.174;16.370;2022-07-23T10:10:30;8.40;;;6.00;;
70487;SDS011;57976;48.174;16.370;2022-07-23T10:12:54;8.50;;;6.10;;
70487;SDS011;57976;48.174;16.370;2022-07-23T10:14:57;9.40;;;6.50;;
70487;SDS011;57976;48.174;16.370;2022-07-23T10:17:01;8.70;;;6.20;;
70487;SDS011;57976;48.174;16.370;2022-07-23T10:19:04;9.00;;;6.20;;
70487;SDS011;57976;48.174;16.370;2022-07-23T10:21:07;9.40;;;6.20;;
70487;SDS011;57976;48.174;16.370;2022-07-23T10:23:13;9.00;;;6.60;;
70487;SDS011;57976;48.174;16.370;2022-07-23T10:25:22;10.60;;;7.10;;
70487;SDS011;57976;48.174;16.370;2022-07-23T10:29:58;8.80;;;6.40;;
70487;SDS011;57976;48.174;16.370;2022-07-23T10:32:08;8.40;;;6.30;;
70487;SDS011;57976;48.174;16.370;2022-07-23T10:34:21;8.90;;;7.00;;
70487;SDS011;57976;48.174;16.370;2022-07-23T10:36:34;9.50;;;6.70;;
70487;SDS011;57976;48.174;16.370;2022-07-23T10:38:47;8.80;;;6.50;;
70487;SDS011;57976;48.174;16.370;2022-07-23T10:40:54;9.90;;;6.40;;
70487;SDS011;57976;48.174;16.370;2022-07-23T10:42:59;8.80;;;6.20;;
70487;SDS011;57976;48.174;16.370;2022-07-23T10:45:24;8.50;;;6.80;;
70487;SDS011;57976;48.174;16.370;2022-07-23T10:47:29;8.90;;;6.60;;
70487;SDS011;57976;48.174;16.370;2022-07-23T10:49:32;9.20;;;7.30;;
70487;SDS011;57976;48.174;16.370;2022-07-23T10:51:35;9.80;;;6.70;;
70487;SDS011;57976;48.174;16.370;2022-07-23T10:53:54;8.90;;;6.70;;
70487;SDS011;57976;48.174;16.370;2022-07-23T10:55:58;9.50;;;6.90;;
70487;SDS011;57976;48.174;16.370;2022-07-23T10:58:02;8.80;;;6.50;;
70487;SDS011;57976;48.174;16.370;2022-07-23T11:02:24;9.60;;;6.90;;
70487;SDS011;57976;48.174;16.370;2022-07-23T11:09:25;9.30;;;6.80;;
70487;SDS011;57976;48.174;16.370;2022-07-23T11:11:29;9.40;;;6.60;;
70487;SDS011;57976;48.174;16.370;2022-07-23T11:13:35;9.90;;;6.80;;
70487;SDS011;57976;48.174;16.370;2022-07-23T11:15:47;10.40;;;6.80;;
70487;SDS011;57976;48.174;16.370;2022-07-23T11:18:06;9.20;;;6.50;;
70487;SDS011;57976;48.174;16.370;2022-07-23T11:20:19;9.70;;;7.00;;
70487;SDS011;57976;48.174;16.370;2022-07-23T11:22:34;9.70;;;7.00;;
70487;SDS011;57976;48.174;16.370;2022-07-23T11:24:36;9.90;;;6.90;;
70487;SDS011;57976;48.174;16.370;2022-07-23T11:27:02;9.60;;;6.40;;
70487;SDS011;57976;48.174;16.370;2022-07-23T11:31:51;11.80;;;6.90;;
70487;SDS011;57976;48.174;16.370;2022-07-23T11:36:29;9.40;;;7.40;;
70487;SDS011;57976;48.174;16.370;2022-07-23T11:38:52;9.80;;;7.40;;
70487;SDS011;57976;48.174;16.370;2022-07-23T11:40:56;10.10;;;7.30;;
70487;SDS011;57976;48.174;16.370;2022-07-23T11:43:00;10.20;;;7.60;;
70487;SDS011;57976;48.174;16.370;2022-07-23T11:45:06;8.70;;;7.00;;
70487;SDS011;57976;48.174;16.370;2022-07-23T11:47:10;10.10;;;7.70;;
70487;SDS011;57976;48.174;16.370;2022-07-23T11:49:13;10.00;;;7.60;;
70487;SDS011;57976;48.174;16.370;2022-07-23T11:51:25;9.60;;;7.60;;
70487;SDS011;57976;48.174;16.370;2022-07-23T11:53:28;10.10;;;7.80;;
70487;SDS011;57976;48.174;16.370;2022-07-23T11:55:32;9.80;;;7.60;;
70487;SDS011;57976;48.174;16.370;2022-07-23T11:57:36;10.40;;;7.60;;
70487;SDS011;57976;48.174;16.370;2022-07-23T11:59:40;10.00;;;7.90;;
70487;SDS011;57976;48.174;16.370;2022-07-23T12:01:55;9.90;;;8.00;;
70487;SDS011;57976;48.174;16.370;2022-07-23T12:03:59;10.70;;;8.30;;
70487;SDS011;57976;48.174;16.370;2022-07-23T12:06:03;10.50;;;8.10;;
70487;SDS011;57976;48.174;16.370;2022-07-23T12:08:08;11.60;;;7.50;;
70487;SDS011;57976;48.174;16.370;2022-07-23T12:10:12;10.20;;;7.60;;
70487;SDS011;57976;48.174;16.370;2022-07-23T12:12:17;9.10;;;7.20;;
70487;SDS011;57976;48.174;16.370;2022-07-23T12:14:19;9.80;;;6.90;;
70487;SDS011;57976;48.174;16.370;2022-07-23T12:16:22;11.50;;;7.40;;
70487;SDS011;57976;48.174;16.370;2022-07-23T12:18:25;10.30;;;7.70;;
70487;SDS011;57976;48.174;16.370;2022-07-23T12:20:30;11.70;;;7.60;;
70487;SDS011;57976;48.174;16.370;2022-07-23T12:22:35;11.40;;;7.40;;
70487;SDS011;57976;48.174;16.370;2022-07-23T12:24:58;9.50;;;7.40;;
70487;SDS011;57976;48.174;16.370;2022-07-23T12:27:08;10.80;;;7.30;;
70487;SDS011;57976;48.174;16.370;2022-07-23T12:29:11;9.50;;;7.10;;
70487;SDS011;57976;48.174;16.370;2022-07-23T12:31:14;9.60;;;6.60;;
70487;SDS011;57976;48.174;16.370;2022-07-23T12:33:21;11.20;;;6.60;;
70487;SDS011;57976;48.174;16.370;2022-07-23T12:35:30;9.50;;;6.70;;
70487;SDS011;57976;48.174;16.370;2022-07-23T12:37:42;9.90;;;6.60;;
70487;SDS011;57976;48.174;16.370;2022-07-23T12:39:46;8.50;;;5.80;;
70487;SDS011;57976;48.174;16.370;2022-07-23T12:41:52;8.20;;;5.90;;
70487;SDS011;57976;48.174;16.370;2022-07-23T12:43:55;10.70;;;6.30;;
70487;SDS011;57976;48.174;16.370;2022-07-23T12:46:03;8.20;;;5.40;;
70487;SDS011;57976;48.174;16.370;2022-07-23T12:48:06;9.80;;;6.20;;
70487;SDS011;57976;48.174;16.370;2022-07-23T12:50:30;7.90;;;5.10;;
70487;SDS011;57976;48.174;16.370;2022-07-23T12:52:34;8.90;;;5.30;;
70487;SDS011;57976;48.174;16.370;2022-07-23T12:54:37;8.90;;;5.60;;
70487;SDS011;57976;48.174;16.370;2022-07-23T12:56:43;9.50;;;6.70;;
70487;SDS011;57976;48.174;16.370;2022-07-23T12:58:51;8.40;;;5.30;;
70487;SDS011;57976;48.174;16.370;2022-07-23T13:00:59;8.30;;;5.30;;
70487;SDS011;57976;48.174;16.370;2022-07-23T13:03:06;7.30;;;5.00;;
70487;SDS011;57976;48.174;16.370;2022-07-23T13:05:23;8.00;;;4.90;;
70487;SDS011;57976;48.174;16.370;2022-07-23T13:07:26;8.40;;;4.80;;
70487;SDS011;57976;48.174;16.370;2022-07-23T13:09:30;7.30;;;4.80;;
70487;SDS011;57976;48.174;16.370;2022-07-23T13:11:43;7.10;;;3.80;;
70487;SDS011;57976;48.174;16.370;2022-07-23T13:13:46;6.90;;;3.50;;
70487;SDS011;57976;48.174;16.370;2022-07-23T13:15:49;6.30;;;3.50;;
70487;SDS011;57976;48.174;16.370;2022-07-23T13:17:53;7.40;;;3.70;;
70487;SDS011;57976;48.174;16.370;2022-07-23T13:19:56;5.80;;;3.20;;
70487;SDS011;57976;48.174;16.370;2022-07-23T13:21:59;7.30;;;3.70;;
70487;SDS011;57976;48.174;16.370;2022-07-23T13:24:10;5.70;;;3.30;;
70487;SDS011;57976;48.174;16.370;2022-07-23T13:26:14;5.50;;;3.20;;
70487;SDS011;57976;48.174;16.370;2022-07-23T13:28:17;5.50;;;3.30;;
70487;SDS011;57976;48.174;16.370;2022-07-23T13:30:22;7.10;;;3.50;;